City View Heights, Ohio
Current Conditions -  °F | °C
As of 12:53 PM on Thursday 30 Oct 2014 (Local Time) from KHAO Reporting Station
Scattered Clouds Scattered Clouds  
Wind Chill: 53°   Ceiling: Unl
Heat Index: 53°   Visibility: 10mi
Dew Point: 34°   Wind: 3mph
Humidity: 48%   Direction: NA
Pressure: 30.16"   Gusts: NA
Location:  39.4247°N, 84.5012°W
Report Text: KHAO 301653Z AUTO VRB03KT 10SM SCT041 12/01 A3016 RMK AO2 SLP214 T01170011
Loading
Personal Weather Stations






























Interactive Weather Map
Tropical Storm Tracking
New forecast layout! Learn more

10-Day Weather Forecast

Advertisements
Track Severe Weather on mobile